Decatur, AL

10:25 AM CST on January 30, 2015 (GMT -0600)
Pointe Mallard | Change Station
CLOSE
Current Station
Personal Weather Station
Location: Decatur, AL
Elevation: 580 ft
Nearby Weather Stations

Elev 580 ft 34.58 °N, 86.94 °W | Updated 3 minutes ago

Mostly Cloudy
Mostly Cloudy
38.3 °F
Feels Like 38 °F
N
0.0
Wind Variable Wind from NE
Gusts 10.0 mph

Today
High -- | Low -- °F
--% Chance of Precip.
Yesterday
High -- | Low -- °F
Precip. -- in
6:47 AM 5:15 PM
Waxing Gibbous, 83% visible
Pressure 30.49 in
Visibility 10.0 miles
Clouds Mostly Cloudy 3300 ft
Windchill 38 °F
Dew Point 26 °F
Humidity 62%
Rainfall 0.00 in
Snow Depth Not available.
UV 2 out of 12
Pollen 2.90 out of 12
Air Quality Not available.
Flu Activity Not available.
METAR KDCU 301553Z AUTO 02011KT 10SM BKN033 04/M04 A3048 RMK AO2 SLP323 T00391039

More Conditions Fewer Conditions

Pressure 30.49 in
Visibility 10.0 miles
Clouds Mostly Cloudy 3300 ft
Windchill 38 °F
Dew Point 26 °F
Humidity 62%
Rainfall 0.00 in
Snow Depth Not available.
UV 2 out of 12
Pollen 2.90 out of 12
Air Quality Not available.
Flu Activity Not available.
METAR KDCU 301553Z AUTO 02011KT 10SM BKN033 04/M04 A3048 RMK AO2 SLP323 T00391039

More Conditions Fewer Conditions

10-Day Weather Forecast

Almanac

Astronomy

Jan. 30, 2015 Rise Set
Actual Time
Civil Twilight
Nautical Twilight
Astronomical Twilight
Moon
Length of Visible Light
Length of Day
Tomorrow will be .
, % of the Moon is Illuminated

Today's Extremes

State Highs State Lows

Community

WunderPhotos

Upload Photos

1,791,810 photos uploaded!

WunderBlogs® & News

Nearby

Air Quality

  Air Quality AQ Index Pollutant
Not available.

Snow Depth

Station Depth Elevation

Earthquake Activity

City Distance Mag. Time & Date
Minimum magnitude displayed is 2.5.

Coastal Water Temperatures

Place Temperature

Nearby Weather Stations